Terminal Aerodrome Forecast
Issued by NWS

Home | Current Version | Previous Version | Text Only | Print | Product List | Glossary On
Versions: 1 2 3 4 5 6 7 8 9 10 11 12 13 14 15 16 17 18 19 20 21 22
080
FTUS44 KLZK 011740
TAFLIT
TAF
KLIT 011740Z 0118/0218 34010KT P6SM BKN045
     FM020000 35008KT P6SM SCT100 BKN250
     FM020800 36006KT P6SM VCSH BKN050 OVC100
     FM021200 35008KT P6SM VCTS SCT025 OVC050CB PROB30 0212/0218 5SM
      -TSRA BR OVC025CB=

USA.gov is the U.S. government's official web portal to all federal, state and local government web resources and services.